Terminal Aerodrome Forecast
Issued by NWS

Home | Current Version | Previous Version | Text Only | Print | Product List | Glossary Off
Versions: 1 2 3 4 5 6 7 8 9 10 11 12 13 14 15 16 17

000
FTUS43 KICT 160337 AAA
TAFSLN
TAF AMD
KSLN 160337Z 1604/1624 07006KT 5SM -FZDZ BR OVC002
     FM160500 05006KT 4SM -FZRA BR OVC002
      TEMPO 1605/1609 1 1/2SM FZRA BR
     FM161300 03010KT 3SM -RA BR OVC004
     FM161800 35011KT 3SM -RA BR OVC004
     FM162100 33012KT P6SM OVC006=

USA.gov is the U.S. government's official web portal to all federal, state and local government web resources and services.